Time;durP1;ratioP1;P1;durP2;ratioP2;P2;SDS_P1;SDS_P2;PMS_P1;PMS_P2;Temp;Humidity;BMP_temperature;BMP_pressure;BME280_temperature;BME280_humidity;BME280_pressure;Samples;Min_cycle;Max_cycle;Signal;HPM_P1;HPM_P2
2021/11/15 00:01:16;;;;;;;8.43;2.40;;;30.00;26.10;;;;;;5048264;28;20245;-62
2021/11/15 00:03:44;;;;;;;8.43;2.30;;;29.90;26.40;;;;;;5050132;28;20428;-60
2021/11/15 00:06:10;;;;;;;9.50;1.63;;;29.80;26.60;;;;;;5067369;28;20077;-62
2021/11/15 00:08:37;;;;;;;8.43;1.52;;;29.60;27.00;;;;;;5067726;28;20092;-60
2021/11/15 00:11:03;;;;;;;9.55;1.70;;;29.50;28.30;;;;;;5067853;28;20077;-57
2021/11/15 00:13:30;;;;;;;5.25;1.45;;;29.30;28.10;;;;;;5052335;28;20077;-59
2021/11/15 00:15:56;;;;;;;3.90;1.50;;;29.20;28.50;;;;;;5072066;28;20154;-62
2021/11/15 00:18:23;;;;;;;7.57;1.90;;;29.00;29.00;;;;;;5037974;28;20226;-59
2021/11/15 00:20:49;;;;;;;7.40;1.50;;;28.90;28.90;;;;;;5052316;28;20168;-62
2021/11/15 00:23:16;;;;;;;5.10;1.63;;;28.80;29.10;;;;;;5056152;28;20092;-57
2021/11/15 00:25:42;;;;;;;7.30;1.67;;;28.70;29.70;;;;;;5052051;28;20081;-58
2021/11/15 00:28:09;;;;;;;5.82;1.88;;;28.50;30.30;;;;;;5070781;28;20085;-62
2021/11/15 00:30:35;;;;;;;6.53;1.90;;;28.30;30.80;;;;;;5054673;28;20188;-58
2021/11/15 00:33:01;;;;;;;7.22;1.40;;;28.20;30.90;;;;;;5071204;28;20073;-62
2021/11/15 00:35:28;;;;;;;11.45;1.83;;;28.00;31.10;;;;;;5054132;28;20077;-59
2021/11/15 00:37:54;;;;;;;11.95;1.85;;;27.80;31.00;;;;;;5070830;28;20175;-58
2021/11/15 00:40:21;;;;;;;13.50;2.25;;;27.60;31.00;;;;;;5071855;28;20098;-61
2021/11/15 00:42:47;;;;;;;6.97;1.50;;;27.40;31.40;;;;;;5070984;28;20077;-60
2021/11/15 00:45:16;;;;;;;8.70;1.60;;;27.20;31.90;;;;;;5072266;28;20096;-59
2021/11/15 00:47:43;;;;;;;8.95;1.70;;;27.10;32.10;;;;;;5050380;28;20736;-62
2021/11/15 00:50:13;;;;;;;9.88;1.92;;;27.00;32.00;;;;;;5068547;28;20108;-61
2021/11/15 00:52:39;;;;;;;16.25;1.73;;;26.80;31.90;;;;;;5070054;28;20072;-58
2021/11/15 00:55:07;;;;;;;14.80;1.88;;;26.70;32.40;;;;;;5072182;28;20092;-60
2021/11/15 00:57:33;;;;;;;11.68;1.52;;;26.50;32.60;;;;;;5054132;28;20137;-63
2021/11/15 00:59:59;;;;;;;16.17;2.33;;;26.40;32.70;;;;;;5058159;28;20120;-61
2021/11/15 01:02:27;;;;;;;14.40;2.45;;;26.30;32.30;;;;;;5092228;28;20134;-57
2021/11/15 01:04:54;;;;;;;18.38;3.15;;;26.10;32.30;;;;;;5091988;28;20095;-62
2021/11/15 01:07:20;;;;;;;16.45;3.22;;;26.00;32.50;;;;;;5046124;28;20073;-59
2021/11/15 01:09:46;;;;;;;22.38;3.55;;;25.90;32.70;;;;;;5053797;28;20226;-59
2021/11/15 01:12:13;;;;;;;17.02;3.78;;;25.70;33.00;;;;;;5052201;28;20646;-59
2021/11/15 01:14:39;;;;;;;19.70;3.70;;;25.60;33.30;;;;;;5080418;28;20546;-59
2021/11/15 01:17:06;;;;;;;22.08;4.30;;;25.50;33.60;;;;;;5057367;28;20535;-62
2021/11/15 01:19:32;;;;;;;14.32;4.50;;;25.50;33.90;;;;;;5052723;28;20515;-59
2021/11/15 01:21:59;;;;;;;16.55;4.95;;;25.40;34.50;;;;;;5041752;28;20119;-57
2021/11/15 01:24:25;;;;;;;20.02;4.75;;;25.40;34.90;;;;;;5065521;28;20118;-61
2021/11/15 01:26:52;;;;;;;20.05;5.05;;;25.30;34.50;;;;;;5073341;28;20073;-59
2021/11/15 01:29:18;;;;;;;30.13;6.53;;;25.20;34.90;;;;;;5071131;28;20454;-57
2021/11/15 01:31:45;;;;;;;25.35;6.55;;;25.10;35.60;;;;;;5036254;28;20069;-61
2021/11/15 01:34:11;;;;;;;23.80;5.78;;;25.00;36.40;;;;;;5054838;28;20444;-60
2021/11/15 01:36:38;;;;;;;25.52;6.80;;;24.90;35.80;;;;;;5043388;28;20101;-62
2021/11/15 01:39:05;;;;;;;21.25;5.85;;;24.90;36.30;;;;;;5036667;28;20176;-58
2021/11/15 01:41:32;;;;;;;22.63;5.93;;;24.80;36.10;;;;;;5050099;28;20099;-63
2021/11/15 01:43:59;;;;;;;21.90;5.93;;;24.70;35.90;;;;;;5040580;28;20783;-60
2021/11/15 01:46:25;;;;;;;30.70;6.18;;;24.60;36.10;;;;;;5073379;28;20138;-62
2021/11/15 01:48:52;;;;;;;20.42;6.03;;;24.50;36.20;;;;;;5071340;28;20282;-61
2021/11/15 01:51:18;;;;;;;20.30;5.70;;;24.50;37.70;;;;;;5072737;28;20528;-60
2021/11/15 01:53:45;;;;;;;16.75;5.65;;;24.40;36.60;;;;;;5084050;28;20099;-57
2021/11/15 01:56:12;;;;;;;20.17;5.68;;;24.30;36.40;;;;;;5064198;28;20079;-62
2021/11/15 01:58:38;;;;;;;26.05;5.90;;;24.10;37.00;;;;;;5072749;28;20140;-62
2021/11/15 02:01:05;;;;;;;18.33;5.70;;;24.10;36.70;;;;;;5072799;28;20651;-58
2021/11/15 02:03:32;;;;;;;18.27;5.93;;;24.00;37.00;;;;;;5072766;28;20072;-58
2021/11/15 02:06:00;;;;;;;25.73;6.82;;;23.90;37.40;;;;;;5056003;28;20155;-57
2021/11/15 02:08:27;;;;;;;18.33;6.90;;;23.90;37.30;;;;;;5072754;28;20096;-58
2021/11/15 02:10:54;;;;;;;23.10;6.78;;;23.80;37.50;;;;;;5072928;28;20076;-58
2021/11/15 02:13:21;;;;;;;33.38;7.18;;;23.70;37.50;;;;;;5059555;28;20069;-60
2021/11/15 02:15:51;;;;;;;23.98;8.00;;;23.70;37.70;;;;;;5043379;28;20092;-60
2021/11/15 02:18:18;;;;;;;36.38;7.78;;;23.60;38.00;;;;;;5063409;28;20172;-58
2021/11/15 02:20:54;;;;;;;29.42;8.85;;;23.60;38.20;;;;;;5066560;28;20069;-59
2021/11/15 02:23:23;;;;;;;35.80;9.18;;;23.60;38.50;;;;;;5072847;28;20583;-58
2021/11/15 02:25:52;;;;;;;29.20;8.48;;;23.50;38.40;;;;;;5063084;28;20481;-57
2021/11/15 02:28:24;;;;;;;30.33;8.43;;;23.40;38.40;;;;;;5090274;28;20538;-58
2021/11/15 02:30:50;;;;;;;31.15;8.80;;;23.40;38.50;;;;;;5072103;28;20438;-59
2021/11/15 02:33:16;;;;;;;28.92;9.50;;;23.30;39.40;;;;;;5072365;28;20069;-58
2021/11/15 02:35:43;;;;;;;31.92;9.30;;;23.20;39.80;;;;;;5071471;28;20666;-59
2021/11/15 02:38:09;;;;;;;32.53;9.65;;;23.10;39.10;;;;;;5072246;28;20434;-60
2021/11/15 02:40:36;;;;;;;40.20;10.38;;;23.10;39.50;;;;;;5052930;28;20085;-56
2021/11/15 02:43:03;;;;;;;33.38;9.95;;;23.10;39.70;;;;;;5055403;28;20159;-58
2021/11/15 02:45:30;;;;;;;38.80;9.60;;;23.10;39.70;;;;;;5055361;28;20073;-58
2021/11/15 02:47:57;;;;;;;31.40;9.80;;;23.10;40.70;;;;;;5039407;28;20179;-61
2021/11/15 02:50:27;;;;;;;33.13;10.45;;;23.00;40.20;;;;;;5071991;28;20531;-60
2021/11/15 02:52:57;;;;;;;44.28;11.75;;;22.90;40.50;;;;;;5035926;28;20116;-56
2021/11/15 02:55:26;;;;;;;39.88;10.20;;;22.90;40.50;;;;;;5064660;28;20455;-59
2021/11/15 02:57:52;;;;;;;33.03;9.77;;;22.80;40.60;;;;;;5056638;28;20072;-52
2021/11/15 03:00:27;;;;;;;37.85;10.45;;;22.80;41.30;;;;;;5047713;28;20128;-54
2021/11/15 03:02:57;;;;;;;44.00;11.75;;;22.80;41.60;;;;;;5068820;28;20501;-58
2021/11/15 03:05:34;;;;;;;36.95;10.27;;;22.80;41.40;;;;;;5068649;28;20069;-58
2021/11/15 03:08:02;;;;;;;31.80;10.18;;;22.70;41.20;;;;;;5068187;28;20096;-60
2021/11/15 03:10:29;;;;;;;40.88;11.80;;;22.70;41.20;;;;;;5070013;28;20160;-58
2021/11/15 03:12:57;;;;;;;38.40;12.27;;;22.50;40.90;;;;;;5067928;28;20077;-56
2021/11/15 03:15:25;;;;;;;37.60;12.80;;;22.50;40.80;;;;;;5068444;28;20085;-58
2021/11/15 03:18:19;;;;;;;41.45;12.38;;;22.40;41.00;;;;;;5068746;28;20069;-59
2021/11/15 03:20:49;;;;;;;47.72;14.77;;;22.40;41.00;;;;;;5047736;28;20086;-57
2021/11/15 03:23:20;;;;;;;48.20;15.23;;;22.30;41.40;;;;;;5050947;28;20078;-58
2021/11/15 03:25:48;;;;;;;45.50;15.38;;;22.30;41.70;;;;;;5067520;28;20089;-57
2021/11/15 03:28:18;;;;;;;44.90;15.15;;;22.20;41.60;;;;;;5049416;28;20097;-59
2021/11/15 03:30:45;;;;;;;47.55;14.80;;;22.10;41.50;;;;;;5068666;28;20072;-56
2021/11/15 03:33:12;;;;;;;55.08;16.95;;;22.10;42.10;;;;;;5044749;28;20086;-57
2021/11/15 03:35:39;;;;;;;52.80;17.90;;;22.10;41.90;;;;;;5049742;28;20103;-55
2021/11/15 03:38:07;;;;;;;50.85;16.30;;;22.10;41.80;;;;;;5032119;28;20105;-59
2021/11/15 03:40:33;;;;;;;59.20;18.08;;;22.10;41.60;;;;;;5067404;28;20455;-57
2021/11/15 03:43:02;;;;;;;58.28;17.27;;;22.10;41.50;;;;;;5068055;28;20584;-61
2021/11/15 03:45:30;;;;;;;74.40;19.48;;;22.00;42.20;;;;;;5051425;28;20081;-57
2021/11/15 03:47:57;;;;;;;68.65;20.63;;;22.00;42.40;;;;;;5070636;28;20093;-62
2021/11/15 03:50:24;;;;;;;81.05;25.60;;;21.90;41.20;;;;;;5073482;28;20085;-61
2021/11/15 03:52:52;;;;;;;80.63;26.88;;;21.90;41.00;;;;;;5055559;28;20068;-62
2021/11/15 03:55:21;;;;;;;78.65;25.88;;;21.90;40.70;;;;;;5071684;28;20427;-58
2021/11/15 03:57:48;;;;;;;92.03;28.77;;;21.90;40.80;;;;;;5071456;28;20073;-56
2021/11/15 04:00:27;;;;;;;71.07;27.10;;;21.90;40.50;;;;;;5071510;28;20204;-58
2021/11/15 04:03:03;;;;;;;71.07;27.88;;;21.90;40.90;;;;;;5037293;28;20523;-56
2021/11/15 04:05:33;;;;;;;81.90;27.00;;;21.80;41.70;;;;;;5055693;28;20077;-59
2021/11/15 04:08:02;;;;;;;83.10;27.30;;;21.70;41.20;;;;;;5071217;28;20180;-55
2021/11/15 04:10:35;;;;;;;86.57;28.88;;;21.70;41.10;;;;;;5072014;28;20072;-57
2021/11/15 04:13:06;;;;;;;75.13;27.25;;;21.60;41.40;;;;;;5054456;28;20079;-61
2021/11/15 04:15:33;;;;;;;74.63;25.33;;;21.60;41.80;;;;;;5050306;28;20085;-58
2021/11/15 04:18:00;;;;;;;79.93;27.33;;;21.70;42.80;;;;;;5054058;28;20400;-56
2021/11/15 04:20:27;;;;;;;82.78;27.13;;;21.50;42.70;;;;;;5054141;28;20074;-56
2021/11/15 04:22:54;;;;;;;82.70;25.60;;;21.50;43.10;;;;;;5057819;28;20551;-55
2021/11/15 04:25:21;;;;;;;69.93;25.67;;;21.50;43.20;;;;;;5051564;28;20073;-55
2021/11/15 04:27:47;;;;;;;83.78;26.42;;;21.50;43.10;;;;;;5051871;28;20073;-58
2021/11/15 04:30:14;;;;;;;75.00;27.20;;;21.50;43.20;;;;;;5059635;28;20148;-58
2021/11/15 04:32:42;;;;;;;63.97;26.25;;;21.40;42.90;;;;;;5054458;28;20082;-56
2021/11/15 04:35:11;;;;;;;86.75;26.40;;;21.40;43.30;;;;;;5070927;28;20073;-57
2021/11/15 04:37:39;;;;;;;68.35;24.83;;;21.30;44.60;;;;;;5034876;28;20108;-57
2021/11/15 04:40:07;;;;;;;73.65;26.05;;;21.30;43.70;;;;;;5051475;28;20078;-56
2021/11/15 04:42:34;;;;;;;80.55;25.45;;;21.30;44.10;;;;;;5070193;28;20083;-60
2021/11/15 04:45:02;;;;;;;92.40;25.98;;;21.20;43.80;;;;;;5056351;28;20180;-57
2021/11/15 04:47:28;;;;;;;73.93;26.15;;;21.10;43.80;;;;;;5072516;28;20126;-57
2021/11/15 04:49:54;;;;;;;74.10;25.00;;;21.10;44.00;;;;;;5070842;28;20558;-56
2021/11/15 04:52:21;;;;;;;74.45;26.52;;;21.10;44.00;;;;;;5054236;28;20069;-55
2021/11/15 04:54:48;;;;;;;79.30;25.42;;;21.10;44.40;;;;;;5070481;28;20452;-59
2021/11/15 04:57:15;;;;;;;76.40;25.92;;;21.10;44.50;;;;;;5070463;28;20116;-58
2021/11/15 04:59:42;;;;;;;85.20;25.65;;;21.10;44.40;;;;;;5066141;28;20122;-57
2021/11/15 05:02:09;;;;;;;90.57;28.00;;;21.10;44.30;;;;;;5073368;28;20400;-60
2021/11/15 05:04:35;;;;;;;80.22;27.33;;;21.00;44.50;;;;;;5072945;28;20130;-56
2021/11/15 05:07:01;;;;;;;82.53;29.08;;;21.00;44.80;;;;;;5074190;28;20083;-55
2021/11/15 05:09:28;;;;;;;91.65;30.50;;;20.90;45.40;;;;;;5056675;28;20089;-56
2021/11/15 05:11:54;;;;;;;90.05;30.95;;;20.90;45.00;;;;;;5073735;28;20210;-57
2021/11/15 05:14:21;;;;;;;86.55;29.92;;;20.90;45.20;;;;;;5072734;28;20159;-55
2021/11/15 05:16:48;;;;;;;;;;;20.90;45.20;;;;;;5092684;28;20068;-55
2021/11/15 05:19:14;;;;;;;102.68;31.08;;;20.90;45.50;;;;;;5091902;28;20437;-54
2021/11/15 05:21:41;;;;;;;94.00;31.20;;;20.80;45.90;;;;;;5057078;28;20091;-60
2021/11/15 05:24:07;;;;;;;95.75;30.60;;;20.80;45.90;;;;;;5044278;28;20073;-56
2021/11/15 05:26:34;;;;;;;90.63;29.70;;;20.80;46.10;;;;;;5072981;28;20104;-59
2021/11/15 05:29:00;;;;;;;102.65;31.10;;;20.80;46.30;;;;;;5057155;28;20543;-56
2021/11/15 05:31:28;;;;;;;99.43;31.55;;;20.70;46.00;;;;;;5073374;28;20134;-57
2021/11/15 05:33:54;;;;;;;99.70;32.05;;;20.60;46.30;;;;;;5073228;28;20159;-56
2021/11/15 05:36:20;;;;;;;91.70;31.88;;;20.60;46.60;;;;;;5073653;28;20166;-56
2021/11/15 05:38:46;;;;;;;;;;;20.60;46.60;;;;;;5038944;28;20088;-60
2021/11/15 05:41:13;;;;;;;101.78;30.45;;;20.60;47.00;;;;;;5068270;28;19973;-61
2021/11/15 05:43:39;;;;;;;106.43;31.98;;;20.50;47.00;;;;;;5091648;28;20081;-55
2021/11/15 05:46:06;;;;;;;96.30;32.72;;;20.50;47.50;;;;;;5037753;28;20107;-59
2021/11/15 05:48:32;;;;;;;92.00;31.48;;;20.50;47.80;;;;;;5072934;28;20092;-57
2021/11/15 05:50:58;;;;;;;;;;;20.40;47.50;;;;;;5073733;28;20120;-61
2021/11/15 05:53:25;;;;;;;103.97;31.77;;;20.40;47.50;;;;;;5091222;28;19957;-57
2021/11/15 05:55:51;;;;;;;105.88;32.95;;;20.40;47.60;;;;;;5072870;28;20080;-59
2021/11/15 05:58:18;;;;;;;86.70;31.58;;;20.40;47.70;;;;;;5073528;28;20167;-61
2021/11/15 06:00:44;;;;;;;96.68;32.05;;;20.30;47.90;;;;;;5070933;28;20119;-56
2021/11/15 06:03:11;;;;;;;109.18;34.20;;;20.30;48.40;;;;;;5061512;28;20083;-56
2021/11/15 06:05:38;;;;;;;98.53;32.92;;;20.20;49.20;;;;;;5091039;28;20608;-55
2021/11/15 06:08:05;;;;;;;102.10;32.55;;;20.20;48.50;;;;;;5080638;28;20099;-59
2021/11/15 06:10:32;;;;;;;106.13;34.88;;;20.20;48.60;;;;;;5072342;28;20073;-56
2021/11/15 06:12:58;;;;;;;114.45;36.95;;;20.20;49.20;;;;;;5065537;28;20124;-60
2021/11/15 06:15:25;;;;;;;110.22;36.45;;;20.10;48.60;;;;;;5072770;28;20155;-60
2021/11/15 06:17:52;;;;;;;80.78;36.03;;;20.10;48.50;;;;;;5073169;28;20526;-58
2021/11/15 06:20:19;;;;;;;101.50;37.72;;;20.10;49.00;;;;;;5072486;28;20089;-56
2021/11/15 06:22:46;;;;;;;102.13;38.15;;;20.10;49.00;;;;;;5054408;28;20108;-56
2021/11/15 06:25:15;;;;;;;112.20;37.75;;;20.00;48.80;;;;;;5053948;28;20068;-63
2021/11/15 06:27:42;;;;;;;98.75;36.55;;;20.00;48.80;;;;;;5055645;28;20168;-58
2021/11/15 06:30:12;;;;;;;104.35;36.08;;;20.00;49.50;;;;;;5055367;28;20088;-57
2021/11/15 06:32:39;;;;;;;98.78;38.20;;;19.90;49.70;;;;;;5072881;28;20077;-62
2021/11/15 06:35:06;;;;;;;94.13;37.75;;;19.90;49.20;;;;;;5071499;28;20103;-62
2021/11/15 06:37:33;;;;;;;107.63;37.42;;;19.90;49.10;;;;;;5055865;28;20108;-58
2021/11/15 06:40:00;;;;;;;94.38;36.33;;;19.80;48.90;;;;;;5072171;28;20158;-64
2021/11/15 06:42:27;;;;;;;106.95;37.60;;;19.80;49.10;;;;;;5090677;28;20089;-61
2021/11/15 06:44:53;;;;;;;101.45;38.42;;;19.80;49.20;;;;;;5072046;28;20161;-62
2021/11/15 06:47:21;;;;;;;101.97;37.28;;;19.70;48.70;;;;;;5071680;28;20137;-56
2021/11/15 06:49:51;;;;;;;100.45;37.60;;;19.70;49.00;;;;;;5089924;28;20164;-59
2021/11/15 06:52:20;;;;;;;101.55;37.22;;;19.70;49.10;;;;;;5072044;28;20068;-60
2021/11/15 06:54:46;;;;;;;110.93;36.65;;;19.70;49.00;;;;;;5071967;28;20072;-58
2021/11/15 06:57:14;;;;;;;108.72;36.75;;;19.70;49.10;;;;;;5089849;28;20562;-61
2021/11/15 06:59:40;;;;;;;102.93;38.88;;;19.70;49.10;;;;;;5071633;28;20077;-61
2021/11/15 07:02:07;;;;;;;106.70;36.88;;;19.60;49.40;;;;;;5072627;28;20080;-61
2021/11/15 07:04:34;;;;;;;94.78;35.53;;;19.60;50.30;;;;;;5055222;28;20378;-59
2021/11/15 07:07:01;;;;;;;86.10;36.60;;;19.60;50.00;;;;;;5071785;28;20076;-57
2021/11/15 07:09:27;;;;;;;93.40;34.35;;;19.60;49.60;;;;;;5053862;28;20100;-62
2021/11/15 07:11:54;;;;;;;78.60;35.63;;;19.50;49.40;;;;;;5038142;28;20160;-60
2021/11/15 07:14:21;;;;;;;98.20;34.58;;;19.50;49.50;;;;;;5071428;28;20080;-61
2021/11/15 07:16:48;;;;;;;94.50;35.53;;;19.50;49.70;;;;;;5071861;28;20079;-58
2021/11/15 07:19:14;;;;;;;98.15;35.58;;;19.50;49.40;;;;;;5072250;28;20069;-60
2021/11/15 07:21:41;;;;;;;100.88;35.28;;;19.50;49.40;;;;;;5069797;28;20069;-59
2021/11/15 07:24:10;;;;;;;102.07;34.10;;;19.50;49.40;;;;;;5053476;28;20107;-61
2021/11/15 07:26:37;;;;;;;96.03;35.05;;;19.50;49.10;;;;;;5088114;28;20168;-58
2021/11/15 07:29:03;;;;;;;93.25;36.08;;;19.40;48.90;;;;;;5081326;28;20084;-60
2021/11/15 07:31:29;;;;;;;94.88;31.58;;;19.40;49.00;;;;;;5045209;28;20176;-56
2021/11/15 07:33:56;;;;;;;85.50;33.35;;;19.40;49.10;;;;;;5062286;28;20093;-62
2021/11/15 07:36:23;;;;;;;87.18;33.30;;;19.30;50.20;;;;;;5060504;28;20539;-57
2021/11/15 07:38:50;;;;;;;93.93;32.95;;;19.30;50.40;;;;;;5061960;28;20163;-55
2021/11/15 07:41:17;;;;;;;84.82;32.13;;;19.40;50.20;;;;;;5046443;28;20068;-56
2021/11/15 07:43:43;;;;;;;82.85;34.20;;;19.30;50.00;;;;;;5060933;28;20100;-58
2021/11/15 07:46:09;;;;;;;86.95;33.17;;;19.30;50.00;;;;;;5078683;28;20075;-59
2021/11/15 07:48:36;;;;;;;85.05;33.70;;;19.30;50.20;;;;;;5062811;28;20085;-58
2021/11/15 07:51:02;;;;;;;;;;;19.30;50.40;;;;;;5062428;28;20562;-61
2021/11/15 07:53:36;;;;;;;98.90;36.30;;;19.30;50.40;;;;;;5079764;28;20441;-57
2021/11/15 07:56:05;;;;;;;103.10;36.95;;;19.20;50.40;;;;;;5060840;28;20116;-59
2021/11/15 07:58:32;;;;;;;93.72;36.70;;;19.20;50.10;;;;;;5061997;28;20103;-57
2021/11/15 08:01:01;;;;;;;94.75;34.53;;;19.10;50.10;;;;;;5056822;28;20479;-58
2021/11/15 08:03:31;;;;;;;100.10;35.10;;;19.10;50.30;;;;;;5048345;28;20164;-56
2021/11/15 08:05:58;;;;;;;100.88;35.22;;;19.10;50.60;;;;;;5056432;28;20443;-61
2021/11/15 08:08:25;;;;;;;105.13;35.50;;;19.00;50.90;;;;;;5060687;28;20077;-60
2021/11/15 08:10:52;;;;;;;96.70;33.72;;;19.00;50.60;;;;;;5057333;28;20065;-58
2021/11/15 08:13:19;;;;;;;92.40;32.05;;;19.00;50.60;;;;;;5058735;28;20091;-59
2021/11/15 08:15:45;;;;;;;92.22;32.22;;;19.00;50.80;;;;;;5059880;28;20462;-58
2021/11/15 08:18:11;;;;;;;82.53;33.80;;;18.90;50.80;;;;;;5042060;28;21432;-61
2021/11/15 08:20:41;;;;;;;92.30;33.30;;;18.90;51.50;;;;;;5056947;28;20282;-58
2021/11/15 08:23:15;;;;;;;95.00;33.15;;;18.90;51.60;;;;;;5056882;28;20076;-60
2021/11/15 08:26:09;;;;;;;96.80;34.72;;;18.90;52.00;;;;;;5058688;28;20519;-57
2021/11/15 08:28:36;;;;;;;79.72;33.90;;;18.90;51.90;;;;;;5060209;28;20180;-58
2021/11/15 08:31:05;;;;;;;104.82;37.17;;;18.80;51.90;;;;;;5058208;28;20562;-61
2021/11/15 08:33:33;;;;;;;108.47;36.85;;;18.70;52.10;;;;;;5059773;28;20074;-58
2021/11/15 08:35:59;;;;;;;104.75;37.72;;;18.80;52.10;;;;;;5061720;28;20075;-61
2021/11/15 08:38:43;;;;;;;95.40;38.42;;;18.80;52.50;;;;;;5060559;28;20081;-62
2021/11/15 08:41:12;;;;;;;96.72;38.60;;;18.80;52.50;;;;;;5061815;28;20127;-59
2021/11/15 08:43:38;;;;;;;91.45;37.50;;;18.70;52.30;;;;;;5045396;28;20179;-59
2021/11/15 08:46:07;;;;;;;97.18;36.97;;;18.70;52.30;;;;;;5061512;28;20089;-61
2021/11/15 08:48:34;;;;;;;105.60;38.92;;;18.70;52.20;;;;;;5063044;28;20767;-60
2021/11/15 08:51:05;;;;;;;97.82;38.90;;;18.70;51.70;;;;;;5060757;28;20135;-56
2021/11/15 08:53:32;;;;;;;101.45;38.17;;;18.70;51.70;;;;;;5044218;28;20069;-58
2021/11/15 08:55:59;;;;;;;98.78;38.20;;;18.60;51.90;;;;;;5061617;28;20073;-61
2021/11/15 08:58:25;;;;;;;87.85;36.15;;;18.60;52.20;;;;;;5043291;28;20089;-61
2021/11/15 09:00:52;;;;;;;102.20;37.90;;;18.60;52.10;;;;;;5044510;28;20178;-62
2021/11/15 09:03:18;;;;;;;95.82;37.53;;;18.60;52.00;;;;;;5061445;28;20097;-58
2021/11/15 09:05:46;;;;;;;96.40;36.20;;;18.50;52.10;;;;;;5041157;28;20595;-58
2021/11/15 09:08:13;;;;;;;111.80;34.85;;;18.50;52.10;;;;;;5062653;28;20070;-59
2021/11/15 09:10:39;;;;;;;87.88;34.08;;;18.50;51.40;;;;;;5049669;28;20065;-58
2021/11/15 09:13:05;;;;;;;;;;;18.50;51.60;;;;;;5061245;28;20099;-61
2021/11/15 09:15:32;;;;;;;91.00;34.83;;;18.50;52.20;;;;;;5040619;28;20013;-58
2021/11/15 09:17:58;;;;;;;89.50;33.15;;;18.40;51.90;;;;;;5061654;28;20076;-58
2021/11/15 09:20:25;;;;;;;;;;;18.50;51.60;;;;;;5060529;28;20128;-59
2021/11/15 09:22:52;;;;;;;94.90;33.67;;;18.40;51.50;;;;;;5060846;28;20468;-61
2021/11/15 09:25:19;;;;;;;85.18;31.60;;;18.40;51.60;;;;;;5062885;28;20114;-60
2021/11/15 09:27:46;;;;;;;101.50;33.40;;;18.30;51.90;;;;;;5060384;28;20528;-59
2021/11/15 09:30:13;;;;;;;103.60;30.80;;;18.30;52.00;;;;;;5049777;28;20451;-57
2021/11/15 09:32:41;;;;;;;82.63;29.58;;;18.30;51.80;;;;;;5044618;28;20076;-59
2021/11/15 09:35:09;;;;;;;73.75;30.85;;;18.30;51.60;;;;;;5060193;28;20457;-59
2021/11/15 09:37:36;;;;;;;74.05;28.50;;;18.30;51.60;;;;;;5061319;28;20077;-61
2021/11/15 09:40:04;;;;;;;76.03;29.65;;;18.20;51.20;;;;;;5044235;28;20153;-57
2021/11/15 09:42:31;;;;;;;78.72;32.28;;;18.20;51.60;;;;;;5062334;28;20073;-58
2021/11/15 09:44:57;;;;;;;84.68;28.80;;;18.10;51.80;;;;;;5058303;28;20134;-58
2021/11/15 09:47:24;;;;;;;69.15;25.58;;;18.00;51.70;;;;;;5043899;28;20588;-56
2021/11/15 09:49:51;;;;;;;74.72;26.88;;;17.80;51.70;;;;;;5043596;28;20105;-58
2021/11/15 09:52:17;;;;;;;67.65;27.73;;;17.70;52.40;;;;;;5061014;28;20097;-58
2021/11/15 09:54:46;;;;;;;82.18;29.55;;;17.70;53.40;;;;;;5042383;28;20072;-59
2021/11/15 09:57:15;;;;;;;71.32;29.02;;;17.60;53.00;;;;;;5042427;28;20092;-57
2021/11/15 09:59:44;;;;;;;77.15;28.27;;;17.50;53.20;;;;;;5060020;28;20087;-59
2021/11/15 10:02:12;;;;;;;76.85;26.75;;;17.50;53.30;;;;;;5046492;28;20104;-60
2021/11/15 10:04:39;;;;;;;75.53;26.58;;;17.40;53.00;;;;;;5063562;28;20068;-58
2021/11/15 10:07:06;;;;;;;77.97;27.45;;;17.50;53.10;;;;;;5062111;28;20081;-57
2021/11/15 10:09:35;;;;;;;68.22;27.08;;;17.50;53.00;;;;;;5081143;28;20081;-57
2021/11/15 10:12:11;;;;;;;90.60;28.35;;;17.60;53.00;;;;;;5062149;28;20066;-61
2021/11/15 10:15:01;;;;;;;81.80;27.95;;;17.50;52.60;;;;;;5063968;28;20084;-61
2021/11/15 10:17:45;;;;;;;86.28;29.08;;;17.50;52.60;;;;;;5053162;28;20076;-60
2021/11/15 10:20:14;;;;;;;92.03;27.95;;;17.60;52.10;;;;;;5061799;28;20084;-58
2021/11/15 10:22:40;;;;;;;99.88;30.00;;;17.60;52.10;;;;;;5064525;28;20095;-56
2021/11/15 10:25:09;;;;;;;96.95;28.65;;;17.60;51.90;;;;;;5079991;28;20080;-61
2021/11/15 10:27:37;;;;;;;89.20;30.00;;;17.70;51.70;;;;;;5063247;28;20098;-58
2021/11/15 10:30:11;;;;;;;81.95;29.00;;;17.70;51.80;;;;;;5061655;28;20625;-58
2021/11/15 10:32:42;;;;;;;92.97;28.83;;;17.70;51.70;;;;;;5063556;28;20182;-61
2021/11/15 10:35:09;;;;;;;108.20;31.90;;;17.70;51.80;;;;;;5062988;28;20434;-58
2021/11/15 10:37:39;;;;;;;93.97;29.60;;;17.60;52.20;;;;;;5061441;28;20172;-58
2021/11/15 10:40:10;;;;;;;103.93;31.02;;;17.50;52.10;;;;;;5079686;28;20076;-58
2021/11/15 10:42:39;;;;;;;98.18;31.58;;;17.60;52.10;;;;;;5042408;28;20158;-58
2021/11/15 10:45:09;;;;;;;122.75;33.67;;;17.60;51.80;;;;;;5078550;28;20122;-60
2021/11/15 10:47:44;;;;;;;115.97;33.28;;;17.70;51.60;;;;;;5081173;28;20073;-61
2021/11/15 10:53:14;;;;;;;126.50;35.90;;;17.70;51.40;;;;;;5079738;28;20069;-58
2021/11/15 10:55:46;;;;;;;112.38;35.10;;;17.60;50.60;;;;;;5062686;28;20080;-57
2021/11/15 10:58:20;;;;;;;117.72;36.60;;;17.50;50.60;;;;;;5062453;28;20171;-57
2021/11/15 11:00:52;;;;;;;124.03;35.45;;;17.50;50.90;;;;;;5045717;28;20104;-57
2021/11/15 11:03:21;;;;;;;117.90;37.72;;;17.60;50.20;;;;;;5061298;28;20099;-58
2021/11/15 11:05:54;;;;;;;108.25;35.22;;;17.50;50.50;;;;;;5045140;28;20072;-61
2021/11/15 11:08:26;;;;;;;120.38;35.70;;;17.40;50.10;;;;;;5045812;28;20089;-61
2021/11/15 11:11:05;;;;;;;114.88;36.95;;;17.50;49.60;;;;;;5050765;28;20069;-56
2021/11/15 11:13:47;;;;;;;128.80;38.28;;;17.50;49.80;;;;;;5062390;28;20068;-58
2021/11/15 11:16:15;;;;;;;111.70;37.00;;;17.30;50.10;;;;;;5062495;28;20605;-57
2021/11/15 11:19:03;;;;;;;123.25;37.65;;;17.20;50.60;;;;;;5043576;28;20527;-57
2021/11/15 11:24:18;;;;;;;110.93;35.85;;;17.10;50.80;;;;;;5052512;28;20146;-56
2021/11/15 11:26:54;;;;;;;107.40;35.67;;;17.10;51.10;;;;;;5079020;28;20097;-61
2021/11/15 11:29:31;;;;;;;99.68;34.17;;;17.00;50.60;;;;;;5061083;28;20153;-58
2021/11/15 11:32:06;;;;;;;111.25;35.38;;;17.10;50.90;;;;;;5044716;28;20077;-57
2021/11/15 11:34:34;;;;;;;109.45;34.03;;;17.10;50.10;;;;;;5062396;28;20633;-59
2021/11/15 11:37:04;;;;;;;113.95;34.65;;;17.10;50.50;;;;;;5060483;28;20119;-59
2021/11/15 11:39:31;;;;;;;104.80;34.08;;;17.00;49.60;;;;;;5059952;28;20506;-59
2021/11/15 11:42:01;;;;;;;112.57;34.35;;;17.00;50.00;;;;;;5043699;28;20522;-60
2021/11/15 11:44:29;;;;;;;107.00;34.00;;;17.10;49.40;;;;;;5034274;28;20081;-58
2021/11/15 11:46:58;;;;;;;101.40;32.72;;;17.10;49.70;;;;;;5045101;28;20083;-58
2021/11/15 11:49:25;;;;;;;101.93;32.53;;;17.10;49.80;;;;;;5043899;28;20537;-60
2021/11/15 11:51:58;;;;;;;89.40;30.55;;;17.20;49.60;;;;;;5062925;28;20069;-56
2021/11/15 11:54:31;;;;;;;76.53;28.58;;;17.10;49.60;;;;;;5062263;28;20594;-59
2021/11/15 11:57:06;;;;;;;91.22;29.63;;;17.20;49.20;;;;;;5062903;28;20179;-57
2021/11/15 11:59:34;;;;;;;93.65;27.30;;;17.10;49.30;;;;;;5059400;28;20492;-57
2021/11/15 12:02:07;;;;;;;84.55;26.65;;;17.10;49.20;;;;;;5041543;28;20108;-57
2021/11/15 12:04:54;;;;;;;83.78;26.83;;;17.10;49.10;;;;;;5060850;28;20123;-57
2021/11/15 12:07:31;;;;;;;107.38;27.92;;;17.10;49.40;;;;;;5080137;28;20077;-57
2021/11/15 12:09:59;;;;;;;88.28;27.40;;;17.10;49.60;;;;;;5082104;28;20089;-57
2021/11/15 12:12:26;;;;;;;96.90;28.90;;;17.10;49.90;;;;;;5049727;28;20092;-59
2021/11/15 12:14:53;;;;;;;85.47;29.10;;;17.10;49.80;;;;;;5045284;28;20130;-57
2021/11/15 12:17:24;;;;;;;94.32;29.27;;;17.10;49.80;;;;;;5083589;28;20081;-61
2021/11/15 12:19:50;;;;;;;84.85;27.83;;;17.10;49.90;;;;;;5065244;28;20073;-61
2021/11/15 12:22:21;;;;;;;;;;;17.10;49.40;;;;;;5082026;28;20099;-60
2021/11/15 12:25:16;;;;;;;78.68;26.02;;;17.10;48.90;;;;;;5049398;28;19956;-57
2021/11/15 12:27:51;;;;;;;78.43;26.17;;;17.10;48.50;;;;;;5063538;28;20565;-57
2021/11/15 12:30:20;;;;;;;100.13;26.33;;;17.10;48.80;;;;;;5082522;28;20100;-58
2021/11/15 12:33:15;;;;;;;72.32;24.33;;;17.10;48.10;;;;;;5064411;28;20073;-61
2021/11/15 12:35:54;;;;;;;81.90;24.25;;;17.10;47.50;;;;;;5065015;28;20077;-61
2021/11/15 12:38:47;;;;;;;66.55;22.17;;;17.10;47.20;;;;;;5065435;28;20169;-57
2021/11/15 12:41:21;;;;;;;68.13;23.30;;;17.20;47.20;;;;;;5064933;28;20130;-58
2021/11/15 12:44:00;;;;;;;63.17;23.88;;;17.10;47.50;;;;;;5082249;28;20065;-58